Time;durP1;ratioP1;P1;durP2;ratioP2;P2;SDS_P1;SDS_P2;PMS_P1;PMS_P2;Temp;Humidity;BMP_temperature;BMP_pressure;BME280_temperature;BME280_humidity;BME280_pressure;Samples;Min_cycle;Max_cycle;Signal;HPM_P1;HPM_P2
2022/06/05 00:00:30;;;;;;;13.75;9.20;;;12.30;99.90;;;;;;4988825;28;20038;-67
2022/06/05 00:03:25;;;;;;;12.60;9.10;;;12.30;99.90;;;;;;4998241;28;20126;-66
2022/06/05 00:06:13;;;;;;;13.32;8.82;;;12.30;99.90;;;;;;5007846;28;20135;-67
2022/06/05 00:08:45;;;;;;;15.40;9.45;;;12.30;99.90;;;;;;4989071;28;20375;-67
2022/06/05 00:11:12;;;;;;;15.38;9.25;;;12.30;99.90;;;;;;4990057;28;20042;-66
2022/06/05 00:13:52;;;;;;;12.90;9.55;;;12.30;99.90;;;;;;4979190;28;20057;-67
2022/06/05 00:16:36;;;;;;;12.75;9.30;;;12.20;99.90;;;;;;4988011;28;20089;-67
2022/06/05 00:19:03;;;;;;;20.55;9.65;;;12.30;99.90;;;;;;4989998;28;20042;-66
2022/06/05 00:21:29;;;;;;;15.30;10.00;;;12.30;99.90;;;;;;4989798;28;20348;-67
2022/06/05 00:23:54;;;;;;;14.43;9.90;;;12.20;99.90;;;;;;4991147;28;20065;-66
2022/06/05 00:26:26;;;;;;;14.48;10.13;;;12.20;99.90;;;;;;4990936;28;20046;-67
2022/06/05 00:29:04;;;;;;;16.70;9.60;;;12.20;99.90;;;;;;4991431;28;20509;-67
2022/06/05 00:31:46;;;;;;;15.73;10.20;;;12.20;99.90;;;;;;4995547;28;20050;-67
2022/06/05 00:34:12;;;;;;;19.58;10.45;;;12.20;99.90;;;;;;4989595;28;20042;-66
2022/06/05 00:36:43;;;;;;;14.85;10.32;;;12.30;99.90;;;;;;4988730;28;20112;-66
2022/06/05 00:39:23;;;;;;;17.90;10.40;;;12.00;99.90;;;;;;4987406;28;20056;-66
2022/06/05 00:41:58;;;;;;;17.05;11.15;;;12.10;99.90;;;;;;4997694;28;20052;-66
2022/06/05 00:44:35;;;;;;;18.20;11.50;;;12.10;99.90;;;;;;4998824;28;20376;-66
2022/06/05 00:47:03;;;;;;;20.45;11.40;;;12.10;99.90;;;;;;4988692;28;20042;-66
2022/06/05 00:49:42;;;;;;;18.30;11.65;;;12.10;99.90;;;;;;4971207;28;20056;-66
2022/06/05 00:52:10;;;;;;;18.95;11.80;;;12.20;99.90;;;;;;4989206;28;20050;-66
2022/06/05 00:54:36;;;;;;;20.27;11.70;;;12.10;99.90;;;;;;4989090;28;20125;-66
2022/06/05 00:57:07;;;;;;;18.08;10.73;;;12.10;99.90;;;;;;4988365;28;20402;-66
2022/06/05 00:59:33;;;;;;;18.88;11.07;;;12.20;99.90;;;;;;4989807;28;20125;-67
2022/06/05 01:01:58;;;;;;;18.98;11.05;;;12.20;99.90;;;;;;4989253;28;20121;-66
2022/06/05 01:04:25;;;;;;;17.02;11.00;;;12.40;99.90;;;;;;4989554;28;20510;-67
2022/06/05 01:06:52;;;;;;;18.15;11.50;;;12.20;99.90;;;;;;5002424;28;20376;-66
2022/06/05 01:09:18;;;;;;;19.75;11.02;;;12.60;99.90;;;;;;4997559;28;20046;-67
2022/06/05 01:12:02;;;;;;;16.42;10.88;;;12.20;99.90;;;;;;5007679;28;20042;-66
2022/06/05 01:15:00;;;;;;;15.05;10.85;;;12.20;99.90;;;;;;4991500;28;20054;-67
2022/06/05 01:17:47;;;;;;;16.23;11.00;;;12.20;99.90;;;;;;4974054;28;20050;-66
2022/06/05 01:20:53;;;;;;;14.90;10.27;;;12.20;99.90;;;;;;4989029;28;20109;-67
2022/06/05 01:23:46;;;;;;;16.17;10.85;;;12.30;99.90;;;;;;4990111;28;20054;-67
2022/06/05 01:26:32;;;;;;;17.23;10.77;;;12.20;99.90;;;;;;4972803;28;20467;-66
2022/06/05 01:29:03;;;;;;;19.73;10.52;;;12.20;99.90;;;;;;4991511;28;20045;-66
2022/06/05 01:31:42;;;;;;;14.18;10.07;;;12.20;99.90;;;;;;4990161;28;20514;-67
2022/06/05 01:34:22;;;;;;;16.58;10.40;;;12.20;99.90;;;;;;4970944;28;20046;-67
2022/06/05 01:37:20;;;;;;;19.48;10.68;;;12.40;99.90;;;;;;4988944;28;20138;-67
2022/06/05 01:40:13;;;;;;;20.20;9.90;;;12.10;99.90;;;;;;4970764;28;20054;-66
2022/06/05 01:42:42;;;;;;;16.90;9.50;;;12.10;99.90;;;;;;4985958;28;20054;-66
2022/06/05 01:45:21;;;;;;;14.52;9.27;;;12.80;99.90;;;;;;4988302;28;20447;-67
2022/06/05 01:47:52;;;;;;;16.10;9.30;;;12.10;99.90;;;;;;4989189;28;20453;-67
2022/06/05 01:50:27;;;;;;;14.35;9.95;;;12.50;99.90;;;;;;4971846;28;20458;-66
2022/06/05 01:53:09;;;;;;;16.77;9.60;;;12.20;99.90;;;;;;4987007;28;20046;-67
2022/06/05 01:55:43;;;;;;;17.67;9.98;;;12.10;99.90;;;;;;4989296;28;20470;-67
2022/06/05 01:58:13;;;;;;;16.95;10.35;;;12.20;99.90;;;;;;4989142;28;20050;-66
2022/06/05 02:00:39;;;;;;;15.73;10.30;;;12.10;99.90;;;;;;4994218;28;20070;-66
2022/06/05 02:03:22;;;;;;;13.93;9.55;;;12.10;99.90;;;;;;5003561;28;20038;-67
2022/06/05 02:06:08;;;;;;;14.98;10.00;;;12.10;99.90;;;;;;4968593;28;20146;-67
2022/06/05 02:08:35;;;;;;;18.88;10.10;;;12.20;99.90;;;;;;4968533;28;20046;-66
2022/06/05 02:11:09;;;;;;;17.38;10.18;;;12.10;99.90;;;;;;4975159;28;20360;-67
2022/06/05 02:13:35;;;;;;;22.23;10.98;;;12.10;99.90;;;;;;4997766;28;20228;-67
2022/06/05 02:16:01;;;;;;;15.65;9.88;;;12.10;99.90;;;;;;5005846;28;20124;-66
2022/06/05 02:18:27;;;;;;;17.70;10.02;;;12.20;99.90;;;;;;4987365;28;20442;-68
2022/06/05 02:20:53;;;;;;;16.55;10.05;;;12.80;99.90;;;;;;4988010;28;20053;-67
2022/06/05 02:23:22;;;;;;;18.27;9.68;;;12.20;99.90;;;;;;4986766;28;20038;-67
2022/06/05 02:25:48;;;;;;;15.85;9.63;;;12.10;99.90;;;;;;4987809;28;20684;-67
2022/06/05 02:28:17;;;;;;;19.10;10.38;;;12.10;99.90;;;;;;4987724;28;20054;-67
2022/06/05 02:30:56;;;;;;;18.42;9.45;;;12.20;99.90;;;;;;4989994;28;20050;-66
2022/06/05 02:33:51;;;;;;;15.48;9.70;;;12.20;99.90;;;;;;4969122;28;20054;-66
2022/06/05 02:36:32;;;;;;;21.17;10.32;;;12.20;99.90;;;;;;4968472;28;20121;-67
2022/06/05 02:39:14;;;;;;;19.23;10.52;;;12.20;99.90;;;;;;4954156;28;20451;-67
2022/06/05 02:41:40;;;;;;;15.25;9.30;;;12.20;99.90;;;;;;5009275;28;20073;-67
2022/06/05 02:47:18;;;;;;;18.05;10.40;;;12.20;99.90;;;;;;4994077;28;20052;-66
2022/06/05 02:49:51;;;;;;;24.25;11.07;;;12.20;99.90;;;;;;5010844;28;20057;-66
2022/06/05 02:52:18;;;;;;;21.50;11.15;;;12.50;99.90;;;;;;5011442;28;20104;-67
2022/06/05 02:55:13;;;;;;;20.75;11.45;;;12.50;99.90;;;;;;4992998;28;20061;-67
2022/06/05 02:57:39;;;;;;;19.05;11.88;;;12.20;99.90;;;;;;4986884;28;20053;-67
2022/06/05 03:00:11;;;;;;;19.75;12.25;;;12.20;99.90;;;;;;5011120;28;20129;-66
2022/06/05 03:05:21;;;;;;;16.70;11.23;;;12.20;99.90;;;;;;5010682;28;20049;-66
2022/06/05 03:07:47;;;;;;;20.48;12.48;;;12.20;99.90;;;;;;5010672;28;20497;-66
2022/06/05 03:10:13;;;;;;;21.48;11.18;;;12.20;99.90;;;;;;4995488;28;20039;-67
2022/06/05 03:12:39;;;;;;;20.17;11.88;;;12.30;99.90;;;;;;4983242;28;20057;-67
2022/06/05 03:15:06;;;;;;;21.40;12.57;;;12.30;99.90;;;;;;4990163;28;20062;-66
2022/06/05 03:17:32;;;;;;;20.20;12.25;;;12.20;99.90;;;;;;4990613;28;20054;-66
2022/06/05 03:19:57;;;;;;;22.60;12.38;;;12.30;99.90;;;;;;4989230;28;20126;-67
2022/06/05 03:22:24;;;;;;;18.92;11.82;;;12.20;99.90;;;;;;4990804;28;20491;-67
2022/06/05 03:24:50;;;;;;;23.42;12.32;;;12.20;99.90;;;;;;4990740;28;20040;-66
2022/06/05 03:27:16;;;;;;;21.33;12.52;;;12.30;99.90;;;;;;4990920;28;20046;-67
2022/06/05 03:29:42;;;;;;;21.40;12.27;;;12.30;99.90;;;;;;4991156;28;20450;-67
2022/06/05 03:32:08;;;;;;;23.00;12.45;;;12.40;99.90;;;;;;4984003;28;20061;-66
2022/06/05 03:34:34;;;;;;;22.85;12.10;;;12.30;99.90;;;;;;4997502;28;20061;-67
2022/06/05 03:37:00;;;;;;;19.33;12.40;;;12.30;99.90;;;;;;4992079;28;20061;-66
2022/06/05 03:39:26;;;;;;;19.67;11.80;;;12.30;99.90;;;;;;4990025;28;20057;-66
2022/06/05 03:41:52;;;;;;;20.88;12.15;;;13.10;99.90;;;;;;5007869;28;20513;-66
2022/06/05 03:44:17;;;;;;;23.40;11.88;;;12.80;99.90;;;;;;5009302;28;20058;-66
2022/06/05 03:46:44;;;;;;;19.45;12.50;;;12.40;99.90;;;;;;4972375;28;20042;-66
2022/06/05 03:49:10;;;;;;;22.52;11.90;;;12.40;99.90;;;;;;4953652;28;20093;-67
2022/06/05 03:51:36;;;;;;;23.45;12.60;;;12.40;99.90;;;;;;4971426;28;20051;-66
2022/06/05 03:54:02;;;;;;;20.80;11.68;;;13.20;99.90;;;;;;4970583;28;20045;-66
2022/06/05 03:56:29;;;;;;;20.63;12.05;;;12.50;99.90;;;;;;4971016;28;20514;-66
2022/06/05 03:58:56;;;;;;;22.30;12.65;;;13.10;99.90;;;;;;4983100;28;20125;-66
2022/06/05 04:01:24;;;;;;;19.10;12.02;;;12.60;99.90;;;;;;4989574;28;20088;-66
2022/06/05 04:03:50;;;;;;;21.75;11.98;;;12.60;99.90;;;;;;4989953;28;20046;-66
2022/06/05 04:06:19;;;;;;;18.00;12.25;;;13.50;99.90;;;;;;4990156;28;20849;-66
2022/06/05 04:08:45;;;;;;;23.23;12.27;;;12.60;99.90;;;;;;4985089;28;20058;-66
2022/06/05 04:11:14;;;;;;;18.70;12.13;;;12.70;99.90;;;;;;5010231;28;20049;-66
2022/06/05 04:13:39;;;;;;;17.75;12.10;;;12.70;99.90;;;;;;5008866;28;20062;-66
2022/06/05 04:16:10;;;;;;;25.23;13.00;;;12.80;99.90;;;;;;4998932;28;20060;-66
2022/06/05 04:18:35;;;;;;;25.48;12.20;;;12.70;99.90;;;;;;4989432;28;20104;-66
2022/06/05 04:21:07;;;;;;;23.40;12.77;;;13.10;99.90;;;;;;4990032;28;20050;-66
2022/06/05 04:23:32;;;;;;;22.77;11.93;;;12.80;99.90;;;;;;4972515;28;20116;-66
2022/06/05 04:25:58;;;;;;;16.45;12.05;;;12.80;99.90;;;;;;4989598;28;20042;-66
2022/06/05 04:28:24;;;;;;;23.70;12.50;;;12.80;99.90;;;;;;4990309;28;20049;-66
2022/06/05 04:30:49;;;;;;;16.02;11.77;;;12.80;99.90;;;;;;4988873;28;20054;-66
2022/06/05 04:33:15;;;;;;;20.13;12.27;;;12.90;99.90;;;;;;4990114;28;20052;-66
2022/06/05 04:35:41;;;;;;;21.60;12.50;;;12.90;99.90;;;;;;4986270;28;20491;-66
2022/06/05 04:38:06;;;;;;;20.42;12.18;;;12.90;99.90;;;;;;4989154;28;20422;-66
2022/06/05 04:40:32;;;;;;;21.88;12.50;;;13.00;99.90;;;;;;4989745;28;20046;-66
2022/06/05 04:42:58;;;;;;;20.88;12.05;;;13.10;99.90;;;;;;4983658;28;20062;-66
2022/06/05 04:45:23;;;;;;;19.42;12.43;;;13.10;99.90;;;;;;4989845;28;20144;-66
2022/06/05 04:47:50;;;;;;;19.70;12.07;;;13.10;99.90;;;;;;5002363;28;20552;-66
2022/06/05 04:50:15;;;;;;;18.75;11.25;;;13.20;99.90;;;;;;4971911;28;20124;-66
2022/06/05 04:52:41;;;;;;;19.17;11.68;;;13.40;99.90;;;;;;4990797;28;20126;-66
2022/06/05 04:55:07;;;;;;;18.20;11.88;;;13.40;99.90;;;;;;4992397;28;20046;-66
2022/06/05 04:57:34;;;;;;;19.90;12.00;;;13.50;99.90;;;;;;4972135;28;20126;-66
2022/06/05 05:00:00;;;;;;;17.92;12.25;;;13.60;99.90;;;;;;5007087;28;20042;-66
2022/06/05 05:02:26;;;;;;;17.92;12.13;;;13.50;99.90;;;;;;5007690;28;20052;-66
2022/06/05 05:04:51;;;;;;;18.77;12.73;;;13.60;99.90;;;;;;4990835;28;20042;-66
2022/06/05 05:07:17;;;;;;;17.60;12.23;;;13.60;99.90;;;;;;5008878;28;20053;-66
2022/06/05 05:09:44;;;;;;;18.90;12.77;;;13.70;99.90;;;;;;5006553;28;20050;-66
2022/06/05 05:12:10;;;;;;;18.83;12.20;;;14.40;99.90;;;;;;5008720;28;20046;-66
2022/06/05 05:14:39;;;;;;;14.98;11.55;;;13.70;99.90;;;;;;5008275;28;20085;-67
2022/06/05 05:17:05;;;;;;;19.45;12.18;;;13.80;99.90;;;;;;5007429;28;20057;-66
2022/06/05 05:19:31;;;;;;;18.05;12.10;;;13.80;99.90;;;;;;5006732;28;20044;-66
2022/06/05 05:21:57;;;;;;;17.55;11.68;;;13.80;99.90;;;;;;5008597;28;20089;-66
2022/06/05 05:24:23;;;;;;;17.65;11.73;;;13.90;99.90;;;;;;5007186;28;20458;-66
2022/06/05 05:26:48;;;;;;;17.52;12.15;;;13.90;99.90;;;;;;4999107;28;20490;-67
2022/06/05 05:29:14;;;;;;;17.42;11.60;;;13.90;99.90;;;;;;4970405;28;20082;-66
2022/06/05 05:31:41;;;;;;;19.13;11.85;;;14.00;99.90;;;;;;4988417;28;20042;-66
2022/06/05 05:34:09;;;;;;;16.90;12.25;;;14.10;99.90;;;;;;4988733;28;20121;-66
2022/06/05 05:36:35;;;;;;;16.88;12.45;;;14.10;99.90;;;;;;4997859;28;20042;-65
2022/06/05 05:42:04;;;;;;;16.55;12.00;;;14.20;99.90;;;;;;5008538;28;20042;-68
2022/06/05 05:44:36;;;;;;;14.90;11.35;;;14.40;99.90;;;;;;5007030;28;20046;-68
2022/06/05 05:47:03;;;;;;;16.23;11.60;;;14.50;99.90;;;;;;4995331;28;20057;-67
2022/06/05 05:49:29;;;;;;;17.92;11.90;;;14.50;99.90;;;;;;4989732;28;20046;-68
2022/06/05 05:51:54;;;;;;;16.67;11.15;;;14.50;99.90;;;;;;5003094;28;20038;-68
2022/06/05 05:54:20;;;;;;;17.02;11.38;;;15.40;99.90;;;;;;5006162;28;20077;-68
2022/06/05 05:56:46;;;;;;;18.45;11.45;;;14.70;99.90;;;;;;5008484;28;20052;-68
2022/06/05 05:59:12;;;;;;;17.25;11.75;;;14.70;99.90;;;;;;4989534;28;20049;-67
2022/06/05 06:01:37;;;;;;;15.80;11.63;;;14.80;99.90;;;;;;4989817;28;20069;-68
2022/06/05 06:04:03;;;;;;;15.02;11.00;;;14.90;99.90;;;;;;5000347;28;20049;-68
2022/06/05 06:06:32;;;;;;;17.48;10.80;;;15.00;99.90;;;;;;4989563;28;20482;-65
2022/06/05 06:08:59;;;;;;;15.45;11.30;;;15.00;99.90;;;;;;4970834;28;20089;-67
2022/06/05 06:11:25;;;;;;;15.80;11.05;;;15.10;99.90;;;;;;4971232;28;20092;-66
2022/06/05 06:13:51;;;;;;;16.30;10.32;;;15.20;99.90;;;;;;4989223;28;20050;-66
2022/06/05 06:16:17;;;;;;;18.63;10.70;;;15.20;99.90;;;;;;5001227;28;20115;-66
2022/06/05 06:18:43;;;;;;;14.63;10.85;;;15.20;99.90;;;;;;4983386;28;20149;-66
2022/06/05 06:21:09;;;;;;;15.85;10.85;;;15.30;99.90;;;;;;5006962;28;20406;-67
2022/06/05 06:23:34;;;;;;;15.40;10.00;;;15.40;99.90;;;;;;5009290;28;20050;-67
2022/06/05 06:26:04;;;;;;;23.33;12.45;;;15.80;99.90;;;;;;5012513;28;20038;-67
2022/06/05 06:28:29;;;;;;;16.52;10.00;;;15.40;99.90;;;;;;5013014;28;20050;-67
2022/06/05 06:30:56;;;;;;;14.23;10.77;;;15.50;99.90;;;;;;4993684;28;20037;-67
2022/06/05 06:33:22;;;;;;;16.50;10.32;;;15.60;99.90;;;;;;5009706;28;20053;-67
2022/06/05 06:35:48;;;;;;;17.67;10.52;;;15.70;99.90;;;;;;5007856;28;20057;-67
2022/06/05 06:38:13;;;;;;;13.68;9.90;;;15.70;99.90;;;;;;4997217;28;20043;-66
2022/06/05 06:40:40;;;;;;;17.02;10.23;;;15.80;99.90;;;;;;5005193;28;20101;-66
2022/06/05 06:43:07;;;;;;;12.25;9.60;;;15.90;99.90;;;;;;4993572;28;20038;-67
2022/06/05 06:45:33;;;;;;;13.27;9.05;;;16.00;99.90;;;;;;4985514;28;20065;-67
2022/06/05 06:47:59;;;;;;;16.42;9.18;;;16.10;99.90;;;;;;4991488;28;20398;-67
2022/06/05 06:50:25;;;;;;;11.32;8.88;;;16.20;99.90;;;;;;4974240;28;20042;-67
2022/06/05 06:52:50;;;;;;;12.80;9.73;;;16.20;99.90;;;;;;4976303;28;20129;-67
2022/06/05 06:55:17;;;;;;;12.45;9.32;;;17.10;99.90;;;;;;4991072;28;20117;-67
2022/06/05 06:57:44;;;;;;;12.23;8.95;;;16.30;99.90;;;;;;4975325;28;20057;-67
2022/06/05 07:00:15;;;;;;;13.80;9.65;;;16.40;99.90;;;;;;4973234;28;20034;-67
2022/06/05 07:02:40;;;;;;;13.57;9.68;;;16.40;99.90;;;;;;4991318;28;20069;-67
2022/06/05 07:05:06;;;;;;;12.10;9.30;;;16.50;99.90;;;;;;4973453;28;20039;-67
2022/06/05 07:07:32;;;;;;;13.45;9.38;;;16.60;99.90;;;;;;4973919;28;20038;-67
2022/06/05 07:09:58;;;;;;;12.90;9.43;;;16.70;99.90;;;;;;4973882;28;20069;-67
2022/06/05 07:12:23;;;;;;;12.52;9.30;;;16.80;99.90;;;;;;4991127;28;20078;-67
2022/06/05 07:14:49;;;;;;;11.40;9.48;;;16.80;99.90;;;;;;4971063;28;20141;-67
2022/06/05 07:17:14;;;;;;;12.65;9.73;;;16.90;99.90;;;;;;4990254;28;20434;-66
2022/06/05 07:19:40;;;;;;;12.60;9.30;;;17.00;99.90;;;;;;4990933;28;20041;-67
2022/06/05 07:22:06;;;;;;;11.75;9.25;;;17.00;99.90;;;;;;4992357;28;20052;-67
2022/06/05 07:24:31;;;;;;;14.25;9.90;;;17.10;99.90;;;;;;5006911;28;20050;-67
2022/06/05 07:26:57;;;;;;;13.48;9.40;;;17.20;99.90;;;;;;4998211;28;20088;-67
2022/06/05 07:29:22;;;;;;;11.52;8.75;;;17.30;99.90;;;;;;4989937;28;20047;-67
2022/06/05 07:31:48;;;;;;;14.25;9.30;;;17.30;99.90;;;;;;4990950;28;20046;-67
2022/06/05 07:34:14;;;;;;;13.57;10.18;;;17.30;99.90;;;;;;5002477;28;20536;-67
2022/06/05 07:36:39;;;;;;;12.73;9.52;;;17.70;99.90;;;;;;5007428;28;20122;-67
2022/06/05 07:39:05;;;;;;;12.30;8.82;;;17.50;99.90;;;;;;4969677;28;20475;-67
2022/06/05 07:41:36;;;;;;;12.32;8.95;;;17.50;99.90;;;;;;4956051;28;20046;-67
2022/06/05 07:44:02;;;;;;;15.18;9.20;;;17.60;99.90;;;;;;4981434;28;20093;-67
2022/06/05 07:46:30;;;;;;;12.65;9.55;;;17.70;99.90;;;;;;4972577;28;20038;-67
2022/06/05 07:48:55;;;;;;;14.10;8.95;;;17.70;99.90;;;;;;4990841;28;20113;-67
2022/06/05 07:54:33;;;;;;;12.23;8.88;;;17.90;99.90;;;;;;4989928;28;20384;-67
2022/06/05 07:57:20;;;;;;;11.18;8.88;;;18.00;99.90;;;;;;4984748;28;20184;-67
2022/06/05 07:59:48;;;;;;;12.40;8.68;;;18.10;99.90;;;;;;4957700;28;20045;-67
2022/06/05 08:02:20;;;;;;;10.05;8.48;;;18.30;99.90;;;;;;4970249;28;20059;-67
2022/06/05 08:04:46;;;;;;;11.77;8.77;;;18.40;99.90;;;;;;4998590;28;20046;-67
2022/06/05 08:07:15;;;;;;;11.15;7.97;;;18.50;99.90;;;;;;4989441;28;20046;-67
2022/06/05 08:09:42;;;;;;;14.10;7.97;;;18.60;99.90;;;;;;4973780;28;20491;-67
2022/06/05 08:12:10;;;;;;;10.98;7.60;;;18.70;99.90;;;;;;4990645;28;20499;-67
2022/06/05 08:14:36;;;;;;;10.40;7.60;;;18.80;99.90;;;;;;4973212;28;20128;-67
2022/06/05 08:17:08;;;;;;;13.43;7.97;;;18.90;99.90;;;;;;4990593;28;20054;-67
2022/06/05 08:19:34;;;;;;;12.23;8.10;;;19.00;99.90;;;;;;4994200;28;20085;-67
2022/06/05 08:22:00;;;;;;;13.20;8.30;;;19.10;99.90;;;;;;4996839;28;20480;-67
2022/06/05 08:24:26;;;;;;;11.93;8.27;;;19.20;99.90;;;;;;4973468;28;20126;-66
2022/06/05 08:26:52;;;;;;;11.15;8.38;;;19.30;99.90;;;;;;4974271;28;20074;-66
2022/06/05 08:29:21;;;;;;;8.65;7.05;;;19.40;99.90;;;;;;4972030;28;20402;-66
2022/06/05 08:31:47;;;;;;;8.45;6.97;;;19.60;99.90;;;;;;4989735;28;20054;-66
2022/06/05 08:34:14;;;;;;;12.15;6.93;;;19.70;99.90;;;;;;4989159;28;20053;-66
2022/06/05 08:36:41;;;;;;;8.25;6.60;;;19.80;99.90;;;;;;4990523;28;20057;-66
2022/06/05 08:42:16;;;;;;;9.88;6.68;;;20.00;99.90;;;;;;4974441;28;20387;-66
2022/06/05 08:45:03;;;;;;;9.88;6.45;;;20.10;99.90;;;;;;4989012;28;20498;-66
2022/06/05 08:47:42;;;;;;;8.13;6.70;;;20.20;99.90;;;;;;4988702;28;20101;-66
2022/06/05 08:50:36;;;;;;;10.10;6.68;;;20.30;99.90;;;;;;4973152;28;20463;-66
2022/06/05 08:53:13;;;;;;;9.32;7.03;;;20.70;99.90;;;;;;4989986;28;20117;-65
2022/06/05 08:55:44;;;;;;;7.72;6.32;;;20.50;99.90;;;;;;4989390;28;20124;-66
2022/06/05 08:58:42;;;;;;;8.50;7.10;;;20.60;99.90;;;;;;4988396;28;20077;-65
2022/06/05 09:01:13;;;;;;;9.07;7.10;;;20.60;99.90;;;;;;4962375;28;20146;-65
2022/06/05 09:03:42;;;;;;;8.82;6.47;;;20.70;99.90;;;;;;4982721;28;20065;-65
2022/06/05 09:06:33;;;;;;;12.38;7.13;;;20.70;99.90;;;;;;4994132;28;20050;-64
2022/06/05 09:09:05;;;;;;;8.88;5.78;;;20.80;99.90;;;;;;4988609;28;20046;-65
2022/06/05 09:11:39;;;;;;;8.65;5.43;;;20.90;99.90;;;;;;4990391;28;20054;-65
2022/06/05 09:14:16;;;;;;;8.13;6.75;;;20.90;99.90;;;;;;4988094;28;20206;-65
2022/06/05 09:16:54;;;;;;;8.75;6.55;;;21.00;99.90;;;;;;4988764;28;20491;-64
2022/06/05 09:19:25;;;;;;;7.85;5.93;;;21.10;99.90;;;;;;4988070;28;20498;-65
2022/06/05 09:22:08;;;;;;;6.80;5.82;;;21.10;99.90;;;;;;4988623;28;20084;-65
2022/06/05 09:24:57;;;;;;;12.85;7.15;;;21.20;99.90;;;;;;4974100;28;20047;-65
2022/06/05 09:27:27;;;;;;;7.45;5.97;;;21.30;99.90;;;;;;4991490;28;20037;-65
2022/06/05 09:30:06;;;;;;;7.15;5.55;;;21.30;99.90;;;;;;4977866;28;20049;-65
2022/06/05 09:32:49;;;;;;;7.53;6.10;;;21.40;99.90;;;;;;4969023;28;20050;-65
2022/06/05 09:35:19;;;;;;;8.18;6.00;;;21.60;99.90;;;;;;4968362;28;20055;-65
2022/06/05 09:37:54;;;;;;;7.95;6.10;;;21.70;99.90;;;;;;4968629;28;20051;-65
2022/06/05 09:40:47;;;;;;;8.43;6.32;;;21.80;99.90;;;;;;4952203;28;20130;-66
2022/06/05 09:43:40;;;;;;;7.43;5.78;;;21.90;99.90;;;;;;4967848;28;20054;-65
2022/06/05 09:46:26;;;;;;;7.65;6.22;;;22.00;99.90;;;;;;4969533;28;20058;-65
2022/06/05 09:49:01;;;;;;;10.10;6.53;;;22.20;99.90;;;;;;4970859;28;20452;-65
2022/06/05 09:51:27;;;;;;;7.93;6.40;;;22.20;99.90;;;;;;4972258;28;20059;-65
2022/06/05 09:54:02;;;;;;;7.88;6.30;;;22.40;99.90;;;;;;4980560;28;20372;-65
2022/06/05 10:00:03;;;;;;;9.25;6.22;;;22.60;99.90;;;;;;5007255;28;20046;-64
2022/06/05 10:02:30;;;;;;;7.88;5.82;;;22.80;99.90;;;;;;5000935;28;20117;-64
2022/06/05 10:04:56;;;;;;;7.60;5.30;;;22.90;99.90;;;;;;5006060;28;20069;-65
2022/06/05 10:07:37;;;;;;;6.65;5.18;;;22.90;99.90;;;;;;5002527;28;20161;-65
2022/06/05 10:10:17;;;;;;;6.75;5.50;;;23.00;99.90;;;;;;5004349;28;20058;-65
2022/06/05 10:13:01;;;;;;;9.10;5.45;;;23.10;99.90;;;;;;5004768;28;20061;-67
2022/06/05 10:15:46;;;;;;;7.32;5.47;;;23.10;99.90;;;;;;5003757;28;20069;-67
2022/06/05 10:18:20;;;;;;;7.32;5.53;;;23.20;99.90;;;;;;5003818;28;20050;-67
2022/06/05 10:20:54;;;;;;;7.80;5.53;;;23.20;99.90;;;;;;4970828;28;20761;-67
2022/06/05 10:23:26;;;;;;;6.10;5.17;;;23.30;99.90;;;;;;4983268;28;20057;-67
2022/06/05 10:26:17;;;;;;;7.57;5.35;;;23.50;99.90;;;;;;4966632;28;20058;-66
2022/06/05 10:28:45;;;;;;;7.32;5.28;;;23.60;99.90;;;;;;4966939;28;20062;-66
2022/06/05 10:31:19;;;;;;;6.50;5.10;;;23.80;99.90;;;;;;4982427;28;20118;-67
2022/06/05 10:33:56;;;;;;;8.95;5.22;;;24.00;99.90;;;;;;4984896;28;20060;-67
2022/06/05 10:36:26;;;;;;;9.63;5.43;;;24.10;99.90;;;;;;4985787;28;20042;-67
2022/06/05 10:39:09;;;;;;;6.05;4.82;;;24.40;99.90;;;;;;4985495;28;20046;-67
2022/06/05 10:41:45;;;;;;;7.22;4.90;;;24.50;99.90;;;;;;4988021;28;20438;-67
2022/06/05 10:44:22;;;;;;;6.85;4.63;;;24.60;99.90;;;;;;4984184;28;20054;-67
2022/06/05 10:46:57;;;;;;;7.22;4.75;;;24.70;99.90;;;;;;4966522;28;20096;-67
2022/06/05 10:49:36;;;;;;;7.97;5.60;;;24.90;99.90;;;;;;4984640;28;20046;-67
2022/06/05 10:52:13;;;;;;;9.90;5.00;;;25.00;99.90;;;;;;4984267;28;20058;-68
2022/06/05 10:55:11;;;;;;;7.93;5.25;;;25.10;99.90;;;;;;4984809;28;20057;-65
2022/06/05 10:57:45;;;;;;;7.35;5.03;;;25.10;99.90;;;;;;4991030;28;20043;-65
2022/06/05 11:00:18;;;;;;;6.18;4.30;;;24.90;99.90;;;;;;4988019;28;20406;-65
2022/06/05 11:03:02;;;;;;;8.32;4.78;;;24.90;99.90;;;;;;4992453;28;20116;-66
2022/06/05 11:06:06;;;;;;;8.25;4.95;;;24.80;99.90;;;;;;5002814;28;20096;-66
2022/06/05 11:08:56;;;;;;;8.30;5.38;;;24.70;99.90;;;;;;4971601;28;20047;-66
2022/06/05 11:14:42;;;;;;;6.97;5.20;;;24.70;99.90;;;;;;4982207;28;20066;-67
2022/06/05 11:17:31;;;;;;;7.63;5.18;;;24.50;99.90;;;;;;4953522;28;20468;-67
2022/06/05 11:20:09;;;;;;;8.05;5.35;;;24.50;99.90;;;;;;4973142;28;20038;-67
2022/06/05 11:22:40;;;;;;;7.07;4.60;;;24.40;99.90;;;;;;4973392;28;20054;-66
2022/06/05 11:25:21;;;;;;;8.02;4.60;;;24.40;99.90;;;;;;4990750;28;20049;-67
2022/06/05 11:27:54;;;;;;;7.00;4.72;;;24.40;99.90;;;;;;4990927;28;20451;-66
2022/06/05 11:30:34;;;;;;;6.40;4.82;;;24.50;99.90;;;;;;4988894;28;20054;-67
2022/06/05 11:33:23;;;;;;;6.90;4.60;;;24.70;99.90;;;;;;4974216;28;20042;-67
2022/06/05 11:36:16;;;;;;;7.63;4.75;;;24.80;99.90;;;;;;4981965;28;20063;-67
2022/06/05 11:38:59;;;;;;;9.00;4.57;;;24.80;99.90;;;;;;4990194;28;20198;-67
2022/06/05 11:41:40;;;;;;;7.20;4.45;;;24.90;99.90;;;;;;4989879;28;20224;-67
2022/06/05 11:44:21;;;;;;;7.43;4.40;;;24.90;99.90;;;;;;4990413;28;20050;-67
2022/06/05 11:47:10;;;;;;;9.05;4.30;;;24.90;99.90;;;;;;4990709;28;20069;-67
2022/06/05 11:50:04;;;;;;;6.13;4.70;;;24.90;99.90;;;;;;4981671;28;20038;-66
2022/06/05 11:52:36;;;;;;;6.25;4.47;;;24.90;99.90;;;;;;4984716;28;20133;-67
2022/06/05 11:55:14;;;;;;;7.43;4.60;;;24.90;99.90;;;;;;5005435;28;20045;-67
2022/06/05 11:57:56;;;;;;;6.75;4.00;;;24.90;99.90;;;;;;4991082;28;20042;-67
2022/06/05 12:00:40;;;;;;;7.07;4.10;;;24.90;99.90;;;;;;5008668;28;20550;-67
2022/06/05 12:03:18;;;;;;;6.88;4.32;;;25.00;99.90;;;;;;5009194;28;20049;-67
2022/06/05 12:05:44;;;;;;;5.60;4.25;;;25.00;99.90;;;;;;5009371;28;20513;-67
2022/06/05 12:08:14;;;;;;;7.05;4.35;;;24.90;99.90;;;;;;5008431;28;20049;-65
2022/06/05 12:10:56;;;;;;;7.95;4.13;;;25.00;99.90;;;;;;5007424;28;20041;-66
2022/06/05 12:14:10;;;;;;;7.25;4.35;;;24.90;99.90;;;;;;5002254;28;20046;-66
2022/06/05 12:16:46;;;;;;;7.43;4.50;;;24.90;99.90;;;;;;4952046;28;20050;-66
2022/06/05 12:19:28;;;;;;;9.18;4.47;;;24.90;99.90;;;;;;4986443;28;20125;-66
2022/06/05 12:22:15;;;;;;;5.45;4.20;;;24.90;99.90;;;;;;4989200;28;20046;-66
2022/06/05 12:24:55;;;;;;;5.53;4.22;;;24.90;99.90;;;;;;4969758;28;20447;-66
2022/06/05 12:27:21;;;;;;;7.18;4.57;;;24.90;99.90;;;;;;4970668;28;20046;-66
2022/06/05 12:30:04;;;;;;;8.60;4.05;;;25.00;99.90;;;;;;4980619;28;20062;-66
2022/06/05 12:32:39;;;;;;;6.30;4.10;;;25.00;99.90;;;;;;4988372;28;20080;-67
2022/06/05 12:35:35;;;;;;;5.28;4.18;;;25.10;99.90;;;;;;4992089;28;20046;-67
2022/06/05 12:38:34;;;;;;;6.85;4.63;;;25.10;99.90;;;;;;4969692;28;20051;-68
2022/06/05 12:40:59;;;;;;;6.40;4.15;;;25.10;99.90;;;;;;4969188;28;20194;-67
2022/06/05 12:43:27;;;;;;;7.93;4.60;;;25.10;99.90;;;;;;4970730;28;20503;-66
2022/06/05 12:46:01;;;;;;;7.40;4.53;;;25.00;99.90;;;;;;4968333;28;20530;-67
2022/06/05 12:48:32;;;;;;;5.70;4.30;;;25.00;99.90;;;;;;4974456;28;20046;-67
2022/06/05 12:51:14;;;;;;;6.35;4.60;;;24.90;99.90;;;;;;4988913;28;20042;-67
2022/06/05 12:53:59;;;;;;;5.22;4.22;;;24.80;99.90;;;;;;4988511;28;20046;-66
2022/06/05 12:56:38;;;;;;;7.78;4.30;;;24.70;99.90;;;;;;4989300;28;20050;-66
2022/06/05 12:59:17;;;;;;;7.50;4.50;;;24.70;99.90;;;;;;4988436;28;20108;-66
2022/06/05 13:02:05;;;;;;;7.88;4.20;;;24.70;99.90;;;;;;4990415;28;20054;-66
2022/06/05 13:04:44;;;;;;;8.13;4.00;;;24.70;99.90;;;;;;4989531;28;20418;-66
2022/06/05 13:07:55;;;;;;;7.50;4.05;;;24.70;99.90;;;;;;4998871;28;20059;-67
2022/06/05 13:10:34;;;;;;;6.22;4.40;;;24.70;99.90;;;;;;4985235;28;20042;-67
2022/06/05 13:13:14;;;;;;;6.60;4.40;;;24.60;99.90;;;;;;4948569;28;20054;-67
2022/06/05 13:15:49;;;;;;;7.38;4.40;;;24.50;99.90;;;;;;4965239;28;20066;-67
2022/06/05 13:18:32;;;;;;;7.15;4.70;;;24.50;99.90;;;;;;4966246;28;20495;-67
2022/06/05 13:21:23;;;;;;;7.53;4.43;;;24.50;99.90;;;;;;4948446;28;20093;-67
2022/06/05 13:24:27;;;;;;;7.03;4.20;;;24.50;99.90;;;;;;4965264;28;20055;-67
2022/06/05 13:27:14;;;;;;;6.43;4.45;;;24.40;99.90;;;;;;4957249;28;20051;-67